createdAt,value
2022-10-11T00:00:08.414Z,1.11
2022-10-11T00:03:12.173Z,1.08
2022-10-11T00:06:15.300Z,1.10
2022-10-11T00:09:19.422Z,1.17
2022-10-11T00:12:23.131Z,1.23
2022-10-11T00:15:26.854Z,1.37
2022-10-11T00:18:30.452Z,1.46
2022-10-11T00:21:34.524Z,1.53
2022-10-11T00:24:38.164Z,1.66
2022-10-11T00:27:41.076Z,1.69
2022-10-11T00:30:44.791Z,1.89
2022-10-11T00:33:48.293Z,2.19
2022-10-11T00:36:51.279Z,2.47
2022-10-11T00:39:54.940Z,2.83
2022-10-11T00:42:58.726Z,3.26
2022-10-11T00:46:24.394Z,3.76
2022-10-11T00:49:56.471Z,4.46
2022-10-11T00:53:05.690Z,4.93
2022-10-11T00:56:18.052Z,5.42
2022-10-11T00:59:29.682Z,5.65
2022-10-11T01:02:32.698Z,5.85
2022-10-11T01:05:40.505Z,6.19
2022-10-11T01:08:45.052Z,6.45
2022-10-11T01:11:51.638Z,6.69
2022-10-11T01:15:06.456Z,6.85
2022-10-11T01:18:13.531Z,7.22
2022-10-11T01:21:50.142Z,7.74
2022-10-11T01:25:25.107Z,7.68
2022-10-11T01:28:53.082Z,7.56
2022-10-11T01:32:16.270Z,7.61
2022-10-11T01:35:37.666Z,8.39
2022-10-11T01:38:49.015Z,8.83
2022-10-11T01:41:56.277Z,8.92
2022-10-11T01:45:00.044Z,9.51
2022-10-11T01:48:09.170Z,10.12
2022-10-11T01:51:12.065Z,10.09
2022-10-11T01:54:25.206Z,10.16
2022-10-11T01:57:35.257Z,10.82
2022-10-11T02:00:59.506Z,11.71
2022-10-11T02:04:32.357Z,11.07
2022-10-11T02:07:45.310Z,11.41
2022-10-11T02:10:51.838Z,11.39
2022-10-11T02:14:06.815Z,11.18
2022-10-11T02:17:18.329Z,11.01
2022-10-11T02:20:25.085Z,11.79
2022-10-11T02:23:36.928Z,12.23
2022-10-11T02:26:44.605Z,12.54
2022-10-11T02:29:50.153Z,13.22
2022-10-11T02:32:54.599Z,13.87
2022-10-11T02:36:08.659Z,14.99
2022-10-11T02:39:32.366Z,15.79
2022-10-11T02:42:45.423Z,16.15
2022-10-11T02:45:56.794Z,16.64
2022-10-11T02:49:01.674Z,17.01
2022-10-11T02:52:07.399Z,17.83
2022-10-11T02:55:12.263Z,18.34
2022-10-11T02:58:15.595Z,18.60
2022-10-11T03:01:19.870Z,18.82
2022-10-11T03:04:23.607Z,19.26
2022-10-11T03:07:27.705Z,19.87
2022-10-11T03:10:31.575Z,20.20
2022-10-11T03:13:35.914Z,20.52
2022-10-11T03:16:39.704Z,20.13
2022-10-11T03:19:42.982Z,20.16
2022-10-11T03:22:46.956Z,20.20
2022-10-11T03:25:50.164Z,20.24
2022-10-11T03:28:54.077Z,20.07
2022-10-11T03:31:57.486Z,19.67
2022-10-11T03:35:01.097Z,20.35
2022-10-11T03:38:04.850Z,20.16
2022-10-11T03:41:08.136Z,20.72
2022-10-11T03:44:11.813Z,20.93
2022-10-11T03:47:15.398Z,20.21
2022-10-11T03:50:19.405Z,20.92
2022-10-11T03:53:23.470Z,22.27
2022-10-11T03:56:27.266Z,23.10
2022-10-11T03:59:31.724Z,23.29
2022-10-11T04:02:38.929Z,22.66
2022-10-11T04:05:42.776Z,22.10
2022-10-11T04:08:46.061Z,22.43
2022-10-11T04:11:49.792Z,21.95
2022-10-11T04:14:53.457Z,20.99
2022-10-11T04:17:56.484Z,20.65
2022-10-11T04:21:00.170Z,19.28
2022-10-11T04:24:03.476Z,20.21
2022-10-11T04:27:07.200Z,22.31
2022-10-11T04:30:11.764Z,22.68
2022-10-11T04:33:15.236Z,24.02
2022-10-11T04:36:19.149Z,19.48
2022-10-11T04:39:22.785Z,16.83
2022-10-11T04:42:26.101Z,15.38
2022-10-11T04:45:29.930Z,14.78
2022-10-11T04:48:33.972Z,14.44
2022-10-11T04:51:37.339Z,14.22
2022-10-11T04:54:41.287Z,14.12
2022-10-11T04:57:44.263Z,14.10
2022-10-11T05:00:47.642Z,14.16
2022-10-11T05:03:51.776Z,14.10
2022-10-11T05:06:56.536Z,14.07
2022-10-11T05:09:59.812Z,14.18
2022-10-11T05:13:03.524Z,14.23
2022-10-11T05:16:10.863Z,14.48
2022-10-11T05:19:15.475Z,14.66
2022-10-11T05:22:18.410Z,14.60
2022-10-11T05:25:22.224Z,14.90
2022-10-11T05:28:25.802Z,15.29
2022-10-11T05:31:29.473Z,18.42
2022-10-11T05:34:32.420Z,19.56
2022-10-11T05:37:35.909Z,21.06
2022-10-11T05:40:40.977Z,23.90
2022-10-11T05:43:45.387Z,25.46
2022-10-11T05:46:48.985Z,27.15
2022-10-11T05:49:52.645Z,27.78
2022-10-11T05:52:57.278Z,24.15
2022-10-11T05:56:01.023Z,22.20
2022-10-11T05:59:05.693Z,25.41
2022-10-11T06:02:17.983Z,28.93
2022-10-11T06:05:21.594Z,29.12
2022-10-11T06:08:24.636Z,24.95
2022-10-11T06:11:28.717Z,23.00
2022-10-11T06:14:32.086Z,23.32
2022-10-11T06:17:36.275Z,27.70
2022-10-11T06:20:39.895Z,29.57
2022-10-11T06:23:43.368Z,29.33
2022-10-11T06:26:46.368Z,27.01
2022-10-11T06:29:50.322Z,26.59
2022-10-11T06:32:53.681Z,27.23
2022-10-11T06:36:08.188Z,26.75
2022-10-11T06:39:12.276Z,25.59
2022-10-11T06:42:15.901Z,24.13
2022-10-11T06:45:18.809Z,25.25
2022-10-11T06:48:21.808Z,25.07
2022-10-11T06:51:26.134Z,23.96
2022-10-11T06:54:29.141Z,24.57
2022-10-11T06:57:33.042Z,24.89
2022-10-11T07:00:35.995Z,24.97
2022-10-11T07:03:39.984Z,25.78
2022-10-11T07:06:44.108Z,26.09
2022-10-11T07:09:47.542Z,26.41
2022-10-11T07:12:51.360Z,27.28
2022-10-11T07:15:54.432Z,28.97
2022-10-11T07:19:01.218Z,29.61
2022-10-11T07:22:05.177Z,29.66
2022-10-11T07:25:08.858Z,30.30
2022-10-11T07:28:13.123Z,29.76
2022-10-11T07:31:23.221Z,29.24
2022-10-11T07:34:26.977Z,28.18
2022-10-11T07:37:30.067Z,26.83
2022-10-11T07:40:34.695Z,26.20
2022-10-11T07:43:39.053Z,25.85
2022-10-11T07:46:42.832Z,27.36
2022-10-11T07:49:46.172Z,27.50
2022-10-11T07:52:49.140Z,26.11
2022-10-11T07:55:52.711Z,25.86
2022-10-11T07:58:58.285Z,25.58
2022-10-11T08:02:01.450Z,24.25
2022-10-11T08:05:05.017Z,23.36
2022-10-11T08:08:07.966Z,23.16
2022-10-11T08:11:11.643Z,25.49
2022-10-11T08:14:15.372Z,27.34
2022-10-11T08:17:18.990Z,27.73
2022-10-11T08:20:22.763Z,26.80
2022-10-11T08:23:26.675Z,27.20
2022-10-11T08:26:29.590Z,26.87
2022-10-11T08:29:36.344Z,25.90
2022-10-11T08:32:40.451Z,25.24
2022-10-11T08:35:43.346Z,24.37
2022-10-11T08:38:47.166Z,23.86
2022-10-11T08:42:02.278Z,23.09
2022-10-11T08:45:11.393Z,23.11
2022-10-11T08:48:30.126Z,23.40
2022-10-11T08:52:00.752Z,23.14
2022-10-11T08:55:22.284Z,23.07
2022-10-11T08:58:39.511Z,22.72
2022-10-11T09:01:53.443Z,22.20
2022-10-11T09:04:56.859Z,20.34
2022-10-11T09:08:15.742Z,19.63
2022-10-11T09:11:47.938Z,19.07
2022-10-11T09:15:12.233Z,18.41
2022-10-11T09:18:32.800Z,17.77
2022-10-11T09:21:55.344Z,17.23
2022-10-11T09:24:58.919Z,16.74
2022-10-11T09:28:20.650Z,16.51
2022-10-11T09:31:24.974Z,16.15
2022-10-11T09:34:34.460Z,15.90
2022-10-11T09:37:49.864Z,15.65
2022-10-11T09:41:22.125Z,15.34
2022-10-11T09:44:28.047Z,15.02
2022-10-11T09:47:35.151Z,14.74
2022-10-11T09:50:40.255Z,14.53
2022-10-11T09:54:01.304Z,14.06
2022-10-11T09:57:05.161Z,13.69
2022-10-11T10:00:21.751Z,13.56
2022-10-11T10:03:30.485Z,13.42
2022-10-11T10:06:35.450Z,13.26
2022-10-11T10:09:38.574Z,13.02
2022-10-11T10:12:41.753Z,12.85
2022-10-11T10:15:56.952Z,12.75
2022-10-11T10:19:05.675Z,12.48
2022-10-11T10:22:19.585Z,12.35
2022-10-11T10:25:31.062Z,12.23
2022-10-11T10:28:35.205Z,12.09
2022-10-11T10:32:13.468Z,12.04
2022-10-11T10:35:26.944Z,11.92
2022-10-11T10:38:34.745Z,11.78
2022-10-11T10:41:38.905Z,11.66
2022-10-11T10:44:44.006Z,11.61
2022-10-11T10:48:11.617Z,11.60
2022-10-11T10:51:37.790Z,11.41
2022-10-11T10:54:56.648Z,11.36
2022-10-11T10:58:30.131Z,11.27
2022-10-11T11:01:36.134Z,11.18
2022-10-11T11:04:40.124Z,11.14
2022-10-11T11:08:09.251Z,11.15
2022-10-11T11:11:24.104Z,11.07
2022-10-11T11:15:00.301Z,10.95
2022-10-11T11:18:09.245Z,10.85
2022-10-11T11:21:31.593Z,10.73
2022-10-11T11:24:41.061Z,10.50
2022-10-11T11:27:52.987Z,10.46
2022-10-11T11:31:04.325Z,10.45
2022-10-11T11:34:14.835Z,10.38
2022-10-11T11:37:40.949Z,10.32
2022-10-11T11:41:06.859Z,10.40
2022-10-11T11:44:27.317Z,10.53
2022-10-11T11:47:37.948Z,10.62
2022-10-11T11:50:46.335Z,10.59
2022-10-11T11:54:18.694Z,10.60
2022-10-11T11:57:54.213Z,10.53
2022-10-11T12:01:07.562Z,10.46
2022-10-11T12:04:31.455Z,10.41
2022-10-11T12:07:58.271Z,10.45
2022-10-11T12:11:02.948Z,10.33
2022-10-11T12:14:33.416Z,10.28
2022-10-11T12:18:16.786Z,10.21
2022-10-11T12:21:23.733Z,10.11
2022-10-11T12:24:47.243Z,10.02
2022-10-11T12:27:57.045Z,9.97
2022-10-11T12:31:09.291Z,9.90
2022-10-11T12:34:18.460Z,9.84
2022-10-11T12:37:21.639Z,9.77
2022-10-11T12:40:38.506Z,9.78
2022-10-11T12:43:52.113Z,9.71
2022-10-11T12:46:56.795Z,9.63
2022-10-11T12:50:29.214Z,9.71
2022-10-11T12:54:08.179Z,9.73
2022-10-11T12:57:46.582Z,9.73
2022-10-11T13:00:53.707Z,9.70
2022-10-11T13:04:13.105Z,9.66
2022-10-11T13:07:24.505Z,9.59
2022-10-11T13:10:33.811Z,9.59
2022-10-11T13:13:57.608Z,9.51
2022-10-11T13:17:04.534Z,9.44
2022-10-11T13:20:11.763Z,9.41
2022-10-11T13:23:25.675Z,9.42
2022-10-11T13:26:31.604Z,9.30
2022-10-11T13:29:51.020Z,9.30
2022-10-11T13:32:56.140Z,9.22
2022-10-11T13:36:05.812Z,9.22
2022-10-11T13:39:30.132Z,9.12
2022-10-11T13:42:35.014Z,9.06
2022-10-11T13:45:42.217Z,9.10
2022-10-11T13:48:46.284Z,8.97
2022-10-11T13:52:03.386Z,9.03
2022-10-11T13:55:12.066Z,9.00
2022-10-11T13:58:35.242Z,9.03
2022-10-11T14:01:46.008Z,9.04
2022-10-11T14:04:51.193Z,9.07
2022-10-11T14:07:54.987Z,9.06
2022-10-11T14:11:05.153Z,9.08
2022-10-11T14:14:29.380Z,9.14
2022-10-11T14:17:43.133Z,9.19
2022-10-11T14:20:46.889Z,9.17
2022-10-11T14:23:59.476Z,9.14
2022-10-11T14:27:05.981Z,9.02
2022-10-11T14:30:26.441Z,9.02
2022-10-11T14:33:30.766Z,9.03
2022-10-11T14:36:34.597Z,9.03
2022-10-11T14:39:38.350Z,9.05
2022-10-11T14:42:45.383Z,9.09
2022-10-11T14:45:49.926Z,9.04
2022-10-11T14:48:56.207Z,9.05
2022-10-11T14:52:00.786Z,9.06
2022-10-11T14:55:04.670Z,9.04
2022-10-11T14:58:09.587Z,9.04
2022-10-11T15:01:17.588Z,9.02
2022-10-11T15:04:26.475Z,9.00
2022-10-11T15:07:30.139Z,8.91
2022-10-11T15:10:41.420Z,8.81
2022-10-11T15:13:44.904Z,8.74
2022-10-11T15:16:49.043Z,8.82
2022-10-11T15:19:52.720Z,8.86
2022-10-11T15:22:57.228Z,8.78
2022-10-11T15:26:00.965Z,8.73
2022-10-11T15:29:05.305Z,8.74
2022-10-11T15:32:09.044Z,8.72
2022-10-11T15:35:12.815Z,8.70
2022-10-11T15:38:19.231Z,8.69
2022-10-11T15:41:24.832Z,8.52
2022-10-11T15:44:28.768Z,8.43
2022-10-11T15:47:32.686Z,8.27
2022-10-11T15:50:37.829Z,8.19
2022-10-11T15:53:41.491Z,8.21
2022-10-11T15:56:44.510Z,8.13
2022-10-11T15:59:48.484Z,8.02
2022-10-11T16:02:56.171Z,7.95
2022-10-11T16:06:05.224Z,7.81
2022-10-11T16:09:09.504Z,7.81
2022-10-11T16:12:13.203Z,7.88
2022-10-11T16:15:17.310Z,7.91
2022-10-11T16:18:23.220Z,7.76
2022-10-11T16:21:26.177Z,7.79
2022-10-11T16:24:30.252Z,7.84
2022-10-11T16:27:34.507Z,7.77
2022-10-11T16:30:45.794Z,7.63
2022-10-11T16:33:50.806Z,7.60
2022-10-11T16:36:54.486Z,7.56
2022-10-11T16:39:58.049Z,7.46
2022-10-11T16:43:07.715Z,7.46
2022-10-11T16:46:11.744Z,7.49
2022-10-11T16:49:22.828Z,7.48
2022-10-11T16:52:27.092Z,7.39
2022-10-11T16:55:31.106Z,7.44
2022-10-11T16:58:35.349Z,7.42
2022-10-11T17:01:40.077Z,7.34
2022-10-11T17:04:44.164Z,7.44
2022-10-11T17:07:48.209Z,7.56
2022-10-11T17:10:57.894Z,7.59
2022-10-11T17:14:02.618Z,7.35
2022-10-11T17:17:07.750Z,7.35
2022-10-11T17:20:11.990Z,7.25
2022-10-11T17:23:15.357Z,7.18
2022-10-11T17:26:28.096Z,7.18
2022-10-11T17:29:31.355Z,7.14
2022-10-11T17:32:35.289Z,7.14
2022-10-11T17:35:38.182Z,7.08
2022-10-11T17:38:41.191Z,7.07
2022-10-11T17:41:45.606Z,7.09
2022-10-11T17:44:49.693Z,7.08
2022-10-11T17:47:52.858Z,7.10
2022-10-11T17:50:56.898Z,7.15
2022-10-11T17:54:00.676Z,7.13
2022-10-11T17:57:04.880Z,6.97
2022-10-11T18:00:08.979Z,6.95
2022-10-11T18:03:13.017Z,6.95
2022-10-11T18:06:16.358Z,7.00
2022-10-11T18:09:20.961Z,7.04
2022-10-11T18:12:24.836Z,7.02
2022-10-11T18:15:33.280Z,6.98
2022-10-11T18:18:36.792Z,6.97
2022-10-11T18:21:41.284Z,6.97
2022-10-11T18:24:44.958Z,6.87
2022-10-11T18:27:48.999Z,6.87
2022-10-11T18:30:53.724Z,7.01
2022-10-11T18:33:57.597Z,7.09
2022-10-11T18:37:01.173Z,6.94
2022-10-11T18:40:05.759Z,6.97
2022-10-11T18:43:09.461Z,6.92
2022-10-11T18:46:15.294Z,6.73
2022-10-11T18:49:18.939Z,6.71
2022-10-11T18:52:22.885Z,6.70
2022-10-11T18:55:25.816Z,6.68
2022-10-11T18:58:33.954Z,6.68
2022-10-11T19:01:42.884Z,6.62
2022-10-11T19:04:46.431Z,6.48
2022-10-11T19:07:49.306Z,6.29
2022-10-11T19:10:53.329Z,6.24
2022-10-11T19:14:07.474Z,6.27
2022-10-11T19:17:13.192Z,6.29
2022-10-11T19:20:17.092Z,6.15
2022-10-11T19:23:21.397Z,6.14
2022-10-11T19:26:29.346Z,6.09
2022-10-11T19:29:34.189Z,6.10
2022-10-11T19:32:37.987Z,6.12
2022-10-11T19:35:43.366Z,6.12
2022-10-11T19:38:48.794Z,6.17
2022-10-11T19:41:52.105Z,6.19
2022-10-11T19:44:55.359Z,6.18
2022-10-11T19:47:58.925Z,6.16
2022-10-11T19:51:04.626Z,6.22
2022-10-11T19:54:11.982Z,6.31
2022-10-11T19:57:15.014Z,6.31
2022-10-11T20:00:18.815Z,6.33
2022-10-11T20:03:22.531Z,6.37
2022-10-11T20:06:28.536Z,6.36
2022-10-11T20:09:32.199Z,6.29
2022-10-11T20:12:36.398Z,6.26
2022-10-11T20:15:40.059Z,6.14
2022-10-11T20:18:45.084Z,6.02
2022-10-11T20:21:48.822Z,5.90
2022-10-11T20:24:52.860Z,5.78
2022-10-11T20:27:56.511Z,5.79
2022-10-11T20:31:01.187Z,5.80
2022-10-11T20:34:07.685Z,5.76
2022-10-11T20:37:11.974Z,5.69
2022-10-11T20:40:19.063Z,5.78
2022-10-11T20:43:23.086Z,5.81
2022-10-11T20:46:29.402Z,5.87
2022-10-11T20:49:32.804Z,5.76
2022-10-11T20:52:36.898Z,5.72
2022-10-11T20:55:40.901Z,5.62
2022-10-11T20:58:45.274Z,5.58
2022-10-11T21:01:49.348Z,5.56
2022-10-11T21:04:52.420Z,5.57
2022-10-11T21:07:56.412Z,5.51
2022-10-11T21:11:00.335Z,5.49
2022-10-11T21:14:05.783Z,5.47
2022-10-11T21:17:09.520Z,5.47
2022-10-11T21:20:13.788Z,5.30
2022-10-11T21:23:19.338Z,5.18
2022-10-11T21:26:23.329Z,5.15
2022-10-11T21:29:26.846Z,5.21
2022-10-11T21:32:30.900Z,5.19
2022-10-11T21:35:34.954Z,5.17
2022-10-11T21:38:38.468Z,5.12
2022-10-11T21:41:42.899Z,5.04
2022-10-11T21:44:46.842Z,4.94
2022-10-11T21:47:50.013Z,4.93
2022-10-11T21:50:55.487Z,4.87
2022-10-11T21:54:02.761Z,4.82
2022-10-11T21:57:06.824Z,4.76
2022-10-11T22:00:10.610Z,4.67
2022-10-11T22:03:16.673Z,4.69
2022-10-11T22:06:20.630Z,4.62
2022-10-11T22:09:24.642Z,4.66
2022-10-11T22:12:28.066Z,4.68
2022-10-11T22:15:35.570Z,4.74
2022-10-11T22:18:40.090Z,4.64
2022-10-11T22:21:45.230Z,4.62
2022-10-11T22:24:49.199Z,4.59
2022-10-11T22:27:53.155Z,4.63
2022-10-11T22:30:56.358Z,4.52
2022-10-11T22:34:01.326Z,4.48
2022-10-11T22:37:05.026Z,4.44
2022-10-11T22:40:09.659Z,4.40
2022-10-11T22:43:13.244Z,4.48
2022-10-11T22:46:17.573Z,4.56
2022-10-11T22:49:21.037Z,4.48
2022-10-11T22:52:24.588Z,4.56
2022-10-11T22:55:28.247Z,4.50
2022-10-11T22:58:31.679Z,4.47
2022-10-11T23:01:35.415Z,4.53
2022-10-11T23:04:39.501Z,4.60
2022-10-11T23:07:43.231Z,4.72
2022-10-11T23:10:47.306Z,4.79
2022-10-11T23:13:51.086Z,4.77
2022-10-11T23:16:54.264Z,4.74
2022-10-11T23:19:57.875Z,4.68
2022-10-11T23:23:01.954Z,4.70
2022-10-11T23:26:06.453Z,4.75
2022-10-11T23:29:10.496Z,4.82
2022-10-11T23:32:14.422Z,4.93
2022-10-11T23:35:18.511Z,5.04
2022-10-11T23:38:22.275Z,5.11
2022-10-11T23:41:28.975Z,5.14
2022-10-11T23:44:32.677Z,5.18
2022-10-11T23:47:36.849Z,5.29
2022-10-11T23:50:40.366Z,5.34
2022-10-11T23:53:44.368Z,5.33
2022-10-11T23:56:48.016Z,5.35
2022-10-11T23:59:51.973Z,5.37
